sensor_id;sensor_type;location;lat;lon;timestamp;P1;durP1;ratioP1;P2;durP2;ratioP2
55300;SDS011;58302;51.446;-2.000;2023-12-14T00:01:13;11.10;;;6.90;;
55300;SDS011;58302;51.446;-2.000;2023-12-14T00:03:40;21.92;;;11.20;;
55300;SDS011;58302;51.446;-2.000;2023-12-14T00:06:07;23.85;;;11.25;;
55300;SDS011;58302;51.446;-2.000;2023-12-14T00:08:34;22.42;;;9.45;;
55300;SDS011;58302;51.446;-2.000;2023-12-14T00:11:05;25.08;;;13.15;;
55300;SDS011;58302;51.446;-2.000;2023-12-14T00:13:37;25.20;;;11.13;;
55300;SDS011;58302;51.446;-2.000;2023-12-14T00:16:05;20.60;;;10.77;;
55300;SDS011;58302;51.446;-2.000;2023-12-14T00:18:31;16.10;;;9.20;;
55300;SDS011;58302;51.446;-2.000;2023-12-14T00:20:57;20.55;;;9.23;;
55300;SDS011;58302;51.446;-2.000;2023-12-14T00:23:24;16.10;;;8.30;;
55300;SDS011;58302;51.446;-2.000;2023-12-14T00:25:50;17.65;;;7.50;;
55300;SDS011;58302;51.446;-2.000;2023-12-14T00:28:16;17.40;;;7.13;;
55300;SDS011;58302;51.446;-2.000;2023-12-14T00:30:43;14.85;;;7.88;;
55300;SDS011;58302;51.446;-2.000;2023-12-14T00:33:09;13.30;;;7.35;;
55300;SDS011;58302;51.446;-2.000;2023-12-14T00:35:35;19.02;;;7.97;;
55300;SDS011;58302;51.446;-2.000;2023-12-14T00:38:01;19.73;;;8.60;;
55300;SDS011;58302;51.446;-2.000;2023-12-14T00:40:27;18.77;;;8.85;;
55300;SDS011;58302;51.446;-2.000;2023-12-14T00:42:53;20.40;;;8.13;;
55300;SDS011;58302;51.446;-2.000;2023-12-14T00:45:19;14.60;;;6.90;;
55300;SDS011;58302;51.446;-2.000;2023-12-14T00:47:45;17.45;;;7.85;;
55300;SDS011;58302;51.446;-2.000;2023-12-14T00:50:11;14.77;;;7.22;;
55300;SDS011;58302;51.446;-2.000;2023-12-14T00:52:37;14.20;;;6.43;;
55300;SDS011;58302;51.446;-2.000;2023-12-14T00:55:03;14.02;;;7.82;;
55300;SDS011;58302;51.446;-2.000;2023-12-14T00:57:29;15.43;;;8.25;;
55300;SDS011;58302;51.446;-2.000;2023-12-14T00:59:55;18.40;;;7.13;;
55300;SDS011;58302;51.446;-2.000;2023-12-14T01:02:21;13.75;;;8.13;;
55300;SDS011;58302;51.446;-2.000;2023-12-14T01:04:47;13.50;;;7.75;;
55300;SDS011;58302;51.446;-2.000;2023-12-14T01:07:14;17.02;;;7.90;;
55300;SDS011;58302;51.446;-2.000;2023-12-14T01:09:40;18.30;;;8.20;;
55300;SDS011;58302;51.446;-2.000;2023-12-14T01:12:07;16.65;;;6.70;;
55300;SDS011;58302;51.446;-2.000;2023-12-14T01:14:33;13.10;;;6.25;;
55300;SDS011;58302;51.446;-2.000;2023-12-14T01:17:00;12.15;;;6.43;;
55300;SDS011;58302;51.446;-2.000;2023-12-14T01:19:26;12.05;;;6.38;;
55300;SDS011;58302;51.446;-2.000;2023-12-14T01:21:52;16.88;;;7.75;;
55300;SDS011;58302;51.446;-2.000;2023-12-14T01:24:18;15.13;;;6.88;;
55300;SDS011;58302;51.446;-2.000;2023-12-14T01:26:44;11.88;;;6.40;;
55300;SDS011;58302;51.446;-2.000;2023-12-14T01:29:10;12.95;;;6.85;;
55300;SDS011;58302;51.446;-2.000;2023-12-14T01:31:37;10.13;;;5.68;;
55300;SDS011;58302;51.446;-2.000;2023-12-14T01:34:03;14.95;;;7.10;;
55300;SDS011;58302;51.446;-2.000;2023-12-14T01:36:29;15.88;;;8.32;;
55300;SDS011;58302;51.446;-2.000;2023-12-14T01:38:55;14.20;;;7.47;;
55300;SDS011;58302;51.446;-2.000;2023-12-14T01:41:21;12.80;;;6.75;;
55300;SDS011;58302;51.446;-2.000;2023-12-14T01:43:47;16.70;;;7.07;;
55300;SDS011;58302;51.446;-2.000;2023-12-14T01:46:13;11.45;;;7.35;;
55300;SDS011;58302;51.446;-2.000;2023-12-14T01:48:40;13.23;;;8.07;;
55300;SDS011;58302;51.446;-2.000;2023-12-14T01:51:06;8.00;;;5.70;;
55300;SDS011;58302;51.446;-2.000;2023-12-14T01:53:32;10.25;;;6.15;;
55300;SDS011;58302;51.446;-2.000;2023-12-14T01:55:59;11.55;;;8.02;;
55300;SDS011;58302;51.446;-2.000;2023-12-14T01:58:25;13.07;;;6.35;;
55300;SDS011;58302;51.446;-2.000;2023-12-14T02:03:45;13.48;;;6.10;;
55300;SDS011;58302;51.446;-2.000;2023-12-14T02:06:12;12.43;;;6.57;;
55300;SDS011;58302;51.446;-2.000;2023-12-14T02:08:38;14.90;;;6.40;;
55300;SDS011;58302;51.446;-2.000;2023-12-14T02:11:04;12.93;;;6.03;;
55300;SDS011;58302;51.446;-2.000;2023-12-14T02:13:30;10.93;;;6.63;;
55300;SDS011;58302;51.446;-2.000;2023-12-14T02:15:56;13.05;;;6.47;;
55300;SDS011;58302;51.446;-2.000;2023-12-14T02:18:22;19.10;;;6.80;;
55300;SDS011;58302;51.446;-2.000;2023-12-14T02:20:48;12.88;;;7.25;;
55300;SDS011;58302;51.446;-2.000;2023-12-14T02:23:13;10.95;;;7.57;;
55300;SDS011;58302;51.446;-2.000;2023-12-14T02:25:40;16.80;;;7.40;;
55300;SDS011;58302;51.446;-2.000;2023-12-14T02:28:06;12.07;;;6.53;;
55300;SDS011;58302;51.446;-2.000;2023-12-14T02:30:32;15.60;;;7.68;;
55300;SDS011;58302;51.446;-2.000;2023-12-14T02:32:58;16.38;;;7.63;;
55300;SDS011;58302;51.446;-2.000;2023-12-14T02:35:24;12.88;;;7.97;;
55300;SDS011;58302;51.446;-2.000;2023-12-14T02:37:50;13.43;;;7.13;;
55300;SDS011;58302;51.446;-2.000;2023-12-14T02:40:16;12.77;;;7.55;;
55300;SDS011;58302;51.446;-2.000;2023-12-14T02:42:42;13.68;;;7.30;;
55300;SDS011;58302;51.446;-2.000;2023-12-14T02:45:08;16.55;;;7.90;;
55300;SDS011;58302;51.446;-2.000;2023-12-14T02:47:36;16.73;;;7.07;;
55300;SDS011;58302;51.446;-2.000;2023-12-14T02:50:02;15.95;;;6.93;;
55300;SDS011;58302;51.446;-2.000;2023-12-14T02:52:28;10.57;;;5.82;;
55300;SDS011;58302;51.446;-2.000;2023-12-14T02:54:54;8.43;;;5.55;;
55300;SDS011;58302;51.446;-2.000;2023-12-14T02:57:20;15.80;;;7.82;;
55300;SDS011;58302;51.446;-2.000;2023-12-14T02:59:46;11.55;;;5.68;;
55300;SDS011;58302;51.446;-2.000;2023-12-14T03:02:12;16.33;;;6.18;;
55300;SDS011;58302;51.446;-2.000;2023-12-14T03:04:38;12.00;;;5.82;;
55300;SDS011;58302;51.446;-2.000;2023-12-14T03:07:07;12.15;;;5.85;;
55300;SDS011;58302;51.446;-2.000;2023-12-14T03:09:33;12.57;;;7.13;;
55300;SDS011;58302;51.446;-2.000;2023-12-14T03:12:00;8.90;;;6.07;;
55300;SDS011;58302;51.446;-2.000;2023-12-14T03:14:26;12.73;;;6.20;;
55300;SDS011;58302;51.446;-2.000;2023-12-14T03:16:57;8.75;;;5.63;;
55300;SDS011;58302;51.446;-2.000;2023-12-14T03:19:23;12.60;;;6.10;;
55300;SDS011;58302;51.446;-2.000;2023-12-14T03:21:49;12.43;;;6.32;;
55300;SDS011;58302;51.446;-2.000;2023-12-14T03:24:16;20.15;;;7.53;;
55300;SDS011;58302;51.446;-2.000;2023-12-14T03:26:43;12.90;;;5.45;;
55300;SDS011;58302;51.446;-2.000;2023-12-14T03:29:12;11.90;;;5.32;;
55300;SDS011;58302;51.446;-2.000;2023-12-14T03:31:40;12.25;;;5.88;;
55300;SDS011;58302;51.446;-2.000;2023-12-14T03:34:06;15.05;;;6.65;;
55300;SDS011;58302;51.446;-2.000;2023-12-14T03:36:32;13.07;;;6.38;;
55300;SDS011;58302;51.446;-2.000;2023-12-14T03:38:58;8.90;;;5.63;;
55300;SDS011;58302;51.446;-2.000;2023-12-14T03:41:27;13.32;;;5.90;;
55300;SDS011;58302;51.446;-2.000;2023-12-14T03:43:53;15.80;;;7.35;;
55300;SDS011;58302;51.446;-2.000;2023-12-14T03:46:20;9.50;;;5.75;;
55300;SDS011;58302;51.446;-2.000;2023-12-14T03:48:46;10.45;;;6.53;;
55300;SDS011;58302;51.446;-2.000;2023-12-14T03:51:13;15.48;;;6.43;;
55300;SDS011;58302;51.446;-2.000;2023-12-14T03:53:39;18.48;;;6.45;;
55300;SDS011;58302;51.446;-2.000;2023-12-14T03:56:05;12.23;;;7.80;;
55300;SDS011;58302;51.446;-2.000;2023-12-14T03:58:32;16.23;;;6.25;;
55300;SDS011;58302;51.446;-2.000;2023-12-14T04:00:58;11.18;;;6.10;;
55300;SDS011;58302;51.446;-2.000;2023-12-14T04:03:24;15.77;;;7.10;;
55300;SDS011;58302;51.446;-2.000;2023-12-14T04:05:50;11.88;;;7.15;;
55300;SDS011;58302;51.446;-2.000;2023-12-14T04:08:16;15.05;;;5.97;;
55300;SDS011;58302;51.446;-2.000;2023-12-14T04:10:42;13.13;;;5.80;;
55300;SDS011;58302;51.446;-2.000;2023-12-14T04:13:08;12.50;;;5.65;;
55300;SDS011;58302;51.446;-2.000;2023-12-14T04:15:34;9.88;;;5.60;;
55300;SDS011;58302;51.446;-2.000;2023-12-14T04:18:00;11.38;;;5.22;;
55300;SDS011;58302;51.446;-2.000;2023-12-14T04:20:26;12.32;;;6.43;;
55300;SDS011;58302;51.446;-2.000;2023-12-14T04:22:52;13.95;;;5.78;;
55300;SDS011;58302;51.446;-2.000;2023-12-14T04:25:18;12.38;;;6.40;;
55300;SDS011;58302;51.446;-2.000;2023-12-14T04:27:44;11.35;;;5.53;;
55300;SDS011;58302;51.446;-2.000;2023-12-14T04:30:10;13.27;;;5.80;;
55300;SDS011;58302;51.446;-2.000;2023-12-14T04:32:37;16.38;;;6.63;;
55300;SDS011;58302;51.446;-2.000;2023-12-14T04:35:04;11.00;;;5.85;;
55300;SDS011;58302;51.446;-2.000;2023-12-14T04:37:31;12.25;;;7.10;;
55300;SDS011;58302;51.446;-2.000;2023-12-14T04:39:57;13.27;;;6.05;;
55300;SDS011;58302;51.446;-2.000;2023-12-14T04:42:23;8.93;;;5.53;;
55300;SDS011;58302;51.446;-2.000;2023-12-14T04:44:49;12.45;;;6.03;;
55300;SDS011;58302;51.446;-2.000;2023-12-14T04:47:15;15.23;;;5.63;;
55300;SDS011;58302;51.446;-2.000;2023-12-14T04:49:41;9.88;;;5.28;;
55300;SDS011;58302;51.446;-2.000;2023-12-14T04:52:07;13.50;;;5.93;;
55300;SDS011;58302;51.446;-2.000;2023-12-14T04:54:34;16.42;;;5.60;;
55300;SDS011;58302;51.446;-2.000;2023-12-14T04:57:05;16.05;;;5.97;;
55300;SDS011;58302;51.446;-2.000;2023-12-14T04:59:31;14.13;;;5.80;;
55300;SDS011;58302;51.446;-2.000;2023-12-14T05:01:57;11.30;;;4.45;;
55300;SDS011;58302;51.446;-2.000;2023-12-14T05:04:23;9.20;;;4.82;;
55300;SDS011;58302;51.446;-2.000;2023-12-14T05:06:49;9.38;;;5.07;;
55300;SDS011;58302;51.446;-2.000;2023-12-14T05:09:15;11.05;;;5.40;;
55300;SDS011;58302;51.446;-2.000;2023-12-14T05:11:41;11.23;;;4.75;;
55300;SDS011;58302;51.446;-2.000;2023-12-14T05:14:10;6.60;;;4.80;;
55300;SDS011;58302;51.446;-2.000;2023-12-14T05:16:37;10.98;;;5.32;;
55300;SDS011;58302;51.446;-2.000;2023-12-14T05:19:03;8.70;;;3.97;;
55300;SDS011;58302;51.446;-2.000;2023-12-14T05:21:29;12.57;;;4.53;;
55300;SDS011;58302;51.446;-2.000;2023-12-14T05:23:55;7.82;;;4.13;;
55300;SDS011;58302;51.446;-2.000;2023-12-14T05:26:22;11.18;;;4.45;;
55300;SDS011;58302;51.446;-2.000;2023-12-14T05:28:48;8.27;;;3.75;;
55300;SDS011;58302;51.446;-2.000;2023-12-14T05:31:14;7.35;;;3.42;;
55300;SDS011;58302;51.446;-2.000;2023-12-14T05:33:40;13.23;;;4.88;;
55300;SDS011;58302;51.446;-2.000;2023-12-14T05:36:06;5.20;;;3.33;;
55300;SDS011;58302;51.446;-2.000;2023-12-14T05:38:37;7.60;;;4.18;;
55300;SDS011;58302;51.446;-2.000;2023-12-14T05:41:04;9.82;;;3.97;;
55300;SDS011;58302;51.446;-2.000;2023-12-14T05:43:30;8.18;;;4.00;;
55300;SDS011;58302;51.446;-2.000;2023-12-14T05:45:56;10.15;;;3.55;;
55300;SDS011;58302;51.446;-2.000;2023-12-14T05:48:23;5.85;;;3.63;;
55300;SDS011;58302;51.446;-2.000;2023-12-14T05:50:51;8.27;;;3.75;;
55300;SDS011;58302;51.446;-2.000;2023-12-14T05:53:17;6.00;;;3.13;;
55300;SDS011;58302;51.446;-2.000;2023-12-14T05:55:43;7.25;;;3.65;;
55300;SDS011;58302;51.446;-2.000;2023-12-14T05:58:10;6.57;;;2.70;;
55300;SDS011;58302;51.446;-2.000;2023-12-14T06:00:37;5.38;;;2.92;;
55300;SDS011;58302;51.446;-2.000;2023-12-14T06:03:04;5.15;;;3.08;;
55300;SDS011;58302;51.446;-2.000;2023-12-14T06:05:31;7.10;;;2.80;;
55300;SDS011;58302;51.446;-2.000;2023-12-14T06:07:57;10.85;;;2.83;;
55300;SDS011;58302;51.446;-2.000;2023-12-14T06:10:23;7.63;;;3.92;;
55300;SDS011;58302;51.446;-2.000;2023-12-14T06:12:49;6.22;;;4.00;;
55300;SDS011;58302;51.446;-2.000;2023-12-14T06:15:15;6.32;;;2.75;;
55300;SDS011;58302;51.446;-2.000;2023-12-14T06:17:41;9.93;;;3.33;;
55300;SDS011;58302;51.446;-2.000;2023-12-14T06:20:08;7.10;;;4.00;;
55300;SDS011;58302;51.446;-2.000;2023-12-14T06:22:37;8.27;;;2.85;;
55300;SDS011;58302;51.446;-2.000;2023-12-14T06:25:03;5.38;;;2.38;;
55300;SDS011;58302;51.446;-2.000;2023-12-14T06:27:30;3.45;;;2.53;;
55300;SDS011;58302;51.446;-2.000;2023-12-14T06:29:57;5.57;;;2.38;;
55300;SDS011;58302;51.446;-2.000;2023-12-14T06:32:24;6.00;;;2.58;;
55300;SDS011;58302;51.446;-2.000;2023-12-14T06:34:50;7.50;;;2.58;;
55300;SDS011;58302;51.446;-2.000;2023-12-14T06:37:16;7.93;;;2.95;;
55300;SDS011;58302;51.446;-2.000;2023-12-14T06:39:42;4.80;;;3.13;;
55300;SDS011;58302;51.446;-2.000;2023-12-14T06:42:08;3.85;;;2.42;;
55300;SDS011;58302;51.446;-2.000;2023-12-14T06:44:34;5.63;;;3.08;;
55300;SDS011;58302;51.446;-2.000;2023-12-14T06:47:00;5.80;;;2.60;;
55300;SDS011;58302;51.446;-2.000;2023-12-14T06:49:26;7.65;;;2.58;;
55300;SDS011;58302;51.446;-2.000;2023-12-14T06:51:52;5.45;;;2.50;;
55300;SDS011;58302;51.446;-2.000;2023-12-14T06:54:19;5.85;;;2.67;;
55300;SDS011;58302;51.446;-2.000;2023-12-14T06:56:45;7.78;;;3.28;;
55300;SDS011;58302;51.446;-2.000;2023-12-14T06:59:11;7.68;;;2.40;;
55300;SDS011;58302;51.446;-2.000;2023-12-14T07:01:37;4.45;;;2.35;;
55300;SDS011;58302;51.446;-2.000;2023-12-14T07:04:03;5.05;;;2.42;;
55300;SDS011;58302;51.446;-2.000;2023-12-14T07:06:29;4.32;;;3.28;;
55300;SDS011;58302;51.446;-2.000;2023-12-14T07:08:56;5.68;;;2.22;;
55300;SDS011;58302;51.446;-2.000;2023-12-14T07:11:22;4.25;;;3.05;;
55300;SDS011;58302;51.446;-2.000;2023-12-14T07:13:48;6.30;;;3.17;;
55300;SDS011;58302;51.446;-2.000;2023-12-14T07:16:14;6.93;;;2.60;;
55300;SDS011;58302;51.446;-2.000;2023-12-14T07:18:41;6.07;;;2.80;;
55300;SDS011;58302;51.446;-2.000;2023-12-14T07:21:07;7.70;;;2.85;;
55300;SDS011;58302;51.446;-2.000;2023-12-14T07:23:34;4.70;;;3.00;;
55300;SDS011;58302;51.446;-2.000;2023-12-14T07:26:01;6.07;;;2.42;;
55300;SDS011;58302;51.446;-2.000;2023-12-14T07:28:27;5.22;;;3.55;;
55300;SDS011;58302;51.446;-2.000;2023-12-14T07:30:53;4.80;;;3.30;;
55300;SDS011;58302;51.446;-2.000;2023-12-14T07:33:20;6.85;;;3.65;;
55300;SDS011;58302;51.446;-2.000;2023-12-14T07:35:46;8.10;;;3.88;;
55300;SDS011;58302;51.446;-2.000;2023-12-14T07:38:12;7.25;;;3.33;;
55300;SDS011;58302;51.446;-2.000;2023-12-14T07:40:38;3.50;;;2.50;;
55300;SDS011;58302;51.446;-2.000;2023-12-14T07:43:06;7.47;;;2.85;;
55300;SDS011;58302;51.446;-2.000;2023-12-14T07:45:33;6.50;;;4.05;;
55300;SDS011;58302;51.446;-2.000;2023-12-14T07:47:59;3.38;;;2.13;;
55300;SDS011;58302;51.446;-2.000;2023-12-14T07:50:25;4.53;;;2.60;;
55300;SDS011;58302;51.446;-2.000;2023-12-14T07:52:53;7.47;;;2.83;;
55300;SDS011;58302;51.446;-2.000;2023-12-14T07:55:19;3.45;;;2.38;;
55300;SDS011;58302;51.446;-2.000;2023-12-14T07:57:45;4.68;;;2.40;;
55300;SDS011;58302;51.446;-2.000;2023-12-14T08:00:13;6.03;;;2.65;;
55300;SDS011;58302;51.446;-2.000;2023-12-14T08:02:40;4.32;;;2.53;;
55300;SDS011;58302;51.446;-2.000;2023-12-14T08:05:07;4.53;;;2.50;;
55300;SDS011;58302;51.446;-2.000;2023-12-14T08:07:34;3.63;;;2.40;;
55300;SDS011;58302;51.446;-2.000;2023-12-14T08:10:00;5.65;;;2.83;;
55300;SDS011;58302;51.446;-2.000;2023-12-14T08:12:27;4.32;;;3.30;;
55300;SDS011;58302;51.446;-2.000;2023-12-14T08:14:53;7.70;;;3.60;;
55300;SDS011;58302;51.446;-2.000;2023-12-14T08:17:19;6.78;;;2.97;;
55300;SDS011;58302;51.446;-2.000;2023-12-14T08:19:46;6.47;;;2.92;;
55300;SDS011;58302;51.446;-2.000;2023-12-14T08:22:12;8.15;;;2.75;;
55300;SDS011;58302;51.446;-2.000;2023-12-14T08:24:43;7.18;;;3.80;;
55300;SDS011;58302;51.446;-2.000;2023-12-14T08:27:09;4.22;;;2.80;;
55300;SDS011;58302;51.446;-2.000;2023-12-14T08:29:35;5.88;;;2.97;;
55300;SDS011;58302;51.446;-2.000;2023-12-14T08:32:01;5.75;;;3.25;;
55300;SDS011;58302;51.446;-2.000;2023-12-14T08:34:27;7.03;;;3.75;;
55300;SDS011;58302;51.446;-2.000;2023-12-14T08:36:53;8.32;;;2.78;;
55300;SDS011;58302;51.446;-2.000;2023-12-14T08:39:20;9.35;;;3.30;;
55300;SDS011;58302;51.446;-2.000;2023-12-14T08:41:46;4.55;;;2.60;;
55300;SDS011;58302;51.446;-2.000;2023-12-14T08:44:12;5.45;;;2.83;;
55300;SDS011;58302;51.446;-2.000;2023-12-14T08:46:43;7.82;;;3.45;;
55300;SDS011;58302;51.446;-2.000;2023-12-14T08:49:10;4.20;;;2.47;;
55300;SDS011;58302;51.446;-2.000;2023-12-14T08:51:37;5.25;;;2.80;;
55300;SDS011;58302;51.446;-2.000;2023-12-14T08:54:04;5.20;;;2.17;;
55300;SDS011;58302;51.446;-2.000;2023-12-14T08:56:31;3.90;;;1.65;;
55300;SDS011;58302;51.446;-2.000;2023-12-14T08:58:58;4.78;;;2.20;;
55300;SDS011;58302;51.446;-2.000;2023-12-14T09:01:25;4.45;;;2.13;;
55300;SDS011;58302;51.446;-2.000;2023-12-14T09:03:51;4.65;;;2.30;;
55300;SDS011;58302;51.446;-2.000;2023-12-14T09:06:17;3.13;;;1.52;;
55300;SDS011;58302;51.446;-2.000;2023-12-14T09:08:44;5.47;;;2.08;;
55300;SDS011;58302;51.446;-2.000;2023-12-14T09:11:11;3.67;;;1.60;;
55300;SDS011;58302;51.446;-2.000;2023-12-14T09:13:37;5.50;;;3.20;;
55300;SDS011;58302;51.446;-2.000;2023-12-14T09:16:04;5.10;;;2.08;;
55300;SDS011;58302;51.446;-2.000;2023-12-14T09:18:30;3.63;;;1.88;;
55300;SDS011;58302;51.446;-2.000;2023-12-14T09:20:56;4.97;;;1.85;;
55300;SDS011;58302;51.446;-2.000;2023-12-14T09:23:22;4.60;;;2.25;;
55300;SDS011;58302;51.446;-2.000;2023-12-14T09:25:49;2.95;;;1.75;;
55300;SDS011;58302;51.446;-2.000;2023-12-14T09:28:15;4.45;;;2.08;;
55300;SDS011;58302;51.446;-2.000;2023-12-14T09:30:41;6.63;;;2.75;;
55300;SDS011;58302;51.446;-2.000;2023-12-14T09:33:07;8.52;;;2.25;;
55300;SDS011;58302;51.446;-2.000;2023-12-14T09:35:35;2.65;;;1.90;;
55300;SDS011;58302;51.446;-2.000;2023-12-14T09:38:02;7.38;;;2.78;;
55300;SDS011;58302;51.446;-2.000;2023-12-14T09:40:33;4.15;;;2.15;;
55300;SDS011;58302;51.446;-2.000;2023-12-14T09:43:00;3.63;;;2.05;;
55300;SDS011;58302;51.446;-2.000;2023-12-14T09:45:29;2.85;;;1.95;;
55300;SDS011;58302;51.446;-2.000;2023-12-14T09:47:56;4.63;;;2.72;;
55300;SDS011;58302;51.446;-2.000;2023-12-14T09:50:26;6.97;;;2.25;;
55300;SDS011;58302;51.446;-2.000;2023-12-14T09:52:52;9.55;;;3.03;;
55300;SDS011;58302;51.446;-2.000;2023-12-14T09:55:18;3.97;;;2.28;;
55300;SDS011;58302;51.446;-2.000;2023-12-14T09:57:44;5.53;;;3.13;;
55300;SDS011;58302;51.446;-2.000;2023-12-14T10:00:11;7.57;;;2.35;;
55300;SDS011;58302;51.446;-2.000;2023-12-14T10:02:39;6.57;;;2.10;;
55300;SDS011;58302;51.446;-2.000;2023-12-14T10:05:10;8.50;;;2.45;;
55300;SDS011;58302;51.446;-2.000;2023-12-14T10:07:43;7.15;;;2.38;;
55300;SDS011;58302;51.446;-2.000;2023-12-14T10:10:10;6.28;;;1.98;;
55300;SDS011;58302;51.446;-2.000;2023-12-14T10:12:54;4.32;;;2.20;;
55300;SDS011;58302;51.446;-2.000;2023-12-14T10:15:26;7.30;;;2.30;;
55300;SDS011;58302;51.446;-2.000;2023-12-14T10:17:54;3.28;;;2.35;;
55300;SDS011;58302;51.446;-2.000;2023-12-14T10:20:21;8.50;;;3.17;;
55300;SDS011;58302;51.446;-2.000;2023-12-14T10:22:47;8.23;;;3.00;;
55300;SDS011;58302;51.446;-2.000;2023-12-14T10:25:14;5.03;;;2.20;;
55300;SDS011;58302;51.446;-2.000;2023-12-14T10:27:40;5.75;;;2.30;;
55300;SDS011;58302;51.446;-2.000;2023-12-14T10:30:07;8.75;;;2.78;;
55300;SDS011;58302;51.446;-2.000;2023-12-14T10:32:34;8.18;;;2.75;;
55300;SDS011;58302;51.446;-2.000;2023-12-14T10:35:00;4.85;;;2.60;;
55300;SDS011;58302;51.446;-2.000;2023-12-14T10:37:26;4.70;;;2.17;;
55300;SDS011;58302;51.446;-2.000;2023-12-14T10:39:54;4.35;;;2.20;;
55300;SDS011;58302;51.446;-2.000;2023-12-14T10:42:23;4.55;;;2.42;;
55300;SDS011;58302;51.446;-2.000;2023-12-14T10:44:53;4.57;;;2.00;;
55300;SDS011;58302;51.446;-2.000;2023-12-14T10:47:20;3.78;;;2.40;;
55300;SDS011;58302;51.446;-2.000;2023-12-14T10:49:48;4.32;;;2.53;;
55300;SDS011;58302;51.446;-2.000;2023-12-14T10:52:16;10.30;;;2.70;;
55300;SDS011;58302;51.446;-2.000;2023-12-14T10:54:45;3.88;;;2.47;;
55300;SDS011;58302;51.446;-2.000;2023-12-14T10:57:12;4.95;;;2.22;;
55300;SDS011;58302;51.446;-2.000;2023-12-14T10:59:38;5.55;;;2.92;;
55300;SDS011;58302;51.446;-2.000;2023-12-14T11:02:07;5.10;;;2.28;;
55300;SDS011;58302;51.446;-2.000;2023-12-14T11:04:55;4.22;;;2.72;;
55300;SDS011;58302;51.446;-2.000;2023-12-14T11:10:19;5.00;;;2.92;;
55300;SDS011;58302;51.446;-2.000;2023-12-14T11:12:59;5.55;;;2.40;;
55300;SDS011;58302;51.446;-2.000;2023-12-14T11:15:25;3.85;;;1.98;;
55300;SDS011;58302;51.446;-2.000;2023-12-14T11:20:59;7.60;;;2.13;;
55300;SDS011;58302;51.446;-2.000;2023-12-14T11:23:29;4.07;;;2.30;;
55300;SDS011;58302;51.446;-2.000;2023-12-14T11:26:06;6.80;;;2.50;;
55300;SDS011;58302;51.446;-2.000;2023-12-14T11:28:36;4.03;;;2.55;;
55300;SDS011;58302;51.446;-2.000;2023-12-14T11:31:04;4.25;;;2.83;;
55300;SDS011;58302;51.446;-2.000;2023-12-14T11:33:34;4.05;;;2.15;;
55300;SDS011;58302;51.446;-2.000;2023-12-14T11:36:01;4.60;;;2.13;;
55300;SDS011;58302;51.446;-2.000;2023-12-14T11:38:30;3.40;;;2.17;;
55300;SDS011;58302;51.446;-2.000;2023-12-14T11:40:57;2.97;;;1.90;;
55300;SDS011;58302;51.446;-2.000;2023-12-14T11:43:24;3.53;;;1.92;;
55300;SDS011;58302;51.446;-2.000;2023-12-14T11:45:52;2.90;;;1.70;;
55300;SDS011;58302;51.446;-2.000;2023-12-14T11:48:20;4.05;;;1.92;;
55300;SDS011;58302;51.446;-2.000;2023-12-14T11:50:46;4.15;;;2.63;;
55300;SDS011;58302;51.446;-2.000;2023-12-14T11:53:14;5.38;;;1.90;;
55300;SDS011;58302;51.446;-2.000;2023-12-14T11:55:41;9.55;;;3.42;;
55300;SDS011;58302;51.446;-2.000;2023-12-14T11:58:11;4.97;;;2.38;;
55300;SDS011;58302;51.446;-2.000;2023-12-14T12:00:41;3.88;;;2.13;;
55300;SDS011;58302;51.446;-2.000;2023-12-14T12:03:09;2.28;;;1.85;;
55300;SDS011;58302;51.446;-2.000;2023-12-14T12:05:48;4.68;;;2.10;;
55300;SDS011;58302;51.446;-2.000;2023-12-14T12:08:20;6.93;;;3.00;;
55300;SDS011;58302;51.446;-2.000;2023-12-14T12:10:48;7.78;;;2.60;;
55300;SDS011;58302;51.446;-2.000;2023-12-14T12:13:15;7.25;;;2.22;;
55300;SDS011;58302;51.446;-2.000;2023-12-14T12:15:43;4.80;;;2.38;;
55300;SDS011;58302;51.446;-2.000;2023-12-14T12:18:12;4.40;;;2.40;;
55300;SDS011;58302;51.446;-2.000;2023-12-14T12:20:40;5.68;;;2.40;;
55300;SDS011;58302;51.446;-2.000;2023-12-14T12:23:06;5.93;;;2.92;;
55300;SDS011;58302;51.446;-2.000;2023-12-14T12:25:33;2.80;;;2.03;;
55300;SDS011;58302;51.446;-2.000;2023-12-14T12:28:03;3.17;;;2.20;;
55300;SDS011;58302;51.446;-2.000;2023-12-14T12:30:29;4.43;;;2.28;;
55300;SDS011;58302;51.446;-2.000;2023-12-14T12:32:56;4.53;;;2.58;;
55300;SDS011;58302;51.446;-2.000;2023-12-14T12:35:23;4.78;;;2.85;;
55300;SDS011;58302;51.446;-2.000;2023-12-14T12:37:50;4.80;;;2.42;;
55300;SDS011;58302;51.446;-2.000;2023-12-14T12:40:20;3.70;;;2.05;;
55300;SDS011;58302;51.446;-2.000;2023-12-14T12:42:52;4.07;;;2.20;;
55300;SDS011;58302;51.446;-2.000;2023-12-14T12:45:24;3.17;;;2.22;;
55300;SDS011;58302;51.446;-2.000;2023-12-14T12:47:53;3.42;;;2.17;;
55300;SDS011;58302;51.446;-2.000;2023-12-14T12:50:19;6.22;;;2.20;;
55300;SDS011;58302;51.446;-2.000;2023-12-14T12:52:48;4.78;;;2.45;;
55300;SDS011;58302;51.446;-2.000;2023-12-14T12:55:14;3.72;;;2.22;;
55300;SDS011;58302;51.446;-2.000;2023-12-14T12:57:41;3.42;;;2.22;;
55300;SDS011;58302;51.446;-2.000;2023-12-14T13:00:08;2.30;;;1.92;;
55300;SDS011;58302;51.446;-2.000;2023-12-14T13:02:38;4.13;;;2.83;;
55300;SDS011;58302;51.446;-2.000;2023-12-14T13:05:05;5.25;;;2.08;;
55300;SDS011;58302;51.446;-2.000;2023-12-14T13:07:35;4.05;;;2.35;;
55300;SDS011;58302;51.446;-2.000;2023-12-14T13:10:05;2.42;;;2.22;;
55300;SDS011;58302;51.446;-2.000;2023-12-14T13:12:32;4.70;;;2.05;;
55300;SDS011;58302;51.446;-2.000;2023-12-14T13:14:59;3.03;;;1.98;;
55300;SDS011;58302;51.446;-2.000;2023-12-14T13:17:25;5.00;;;2.42;;
55300;SDS011;58302;51.446;-2.000;2023-12-14T13:19:52;2.70;;;2.10;;
55300;SDS011;58302;51.446;-2.000;2023-12-14T13:22:18;3.70;;;2.38;;
55300;SDS011;58302;51.446;-2.000;2023-12-14T13:24:45;2.20;;;1.95;;
55300;SDS011;58302;51.446;-2.000;2023-12-14T13:27:12;1.95;;;1.52;;
55300;SDS011;58302;51.446;-2.000;2023-12-14T13:29:38;3.22;;;2.13;;
55300;SDS011;58302;51.446;-2.000;2023-12-14T13:32:04;4.85;;;2.00;;
55300;SDS011;58302;51.446;-2.000;2023-12-14T13:34:30;3.70;;;2.15;;
55300;SDS011;58302;51.446;-2.000;2023-12-14T13:37:00;5.03;;;1.85;;
55300;SDS011;58302;51.446;-2.000;2023-12-14T13:39:27;5.30;;;1.88;;
55300;SDS011;58302;51.446;-2.000;2023-12-14T13:41:55;4.35;;;2.60;;
55300;SDS011;58302;51.446;-2.000;2023-12-14T13:44:21;8.70;;;3.50;;
55300;SDS011;58302;51.446;-2.000;2023-12-14T13:46:47;4.35;;;2.50;;
55300;SDS011;58302;51.446;-2.000;2023-12-14T13:49:14;3.20;;;1.90;;
55300;SDS011;58302;51.446;-2.000;2023-12-14T13:51:40;2.50;;;2.13;;
55300;SDS011;58302;51.446;-2.000;2023-12-14T13:54:06;3.92;;;2.33;;
55300;SDS011;58302;51.446;-2.000;2023-12-14T13:56:31;4.63;;;1.70;;
55300;SDS011;58302;51.446;-2.000;2023-12-14T13:58:57;3.67;;;2.47;;
55300;SDS011;58302;51.446;-2.000;2023-12-14T14:01:23;5.18;;;3.08;;
55300;SDS011;58302;51.446;-2.000;2023-12-14T14:03:50;4.50;;;3.03;;
55300;SDS011;58302;51.446;-2.000;2023-12-14T14:06:17;3.40;;;3.10;;
55300;SDS011;58302;51.446;-2.000;2023-12-14T14:08:44;5.07;;;3.05;;
55300;SDS011;58302;51.446;-2.000;2023-12-14T14:11:10;7.72;;;3.97;;
55300;SDS011;58302;51.446;-2.000;2023-12-14T14:13:39;5.53;;;2.90;;
55300;SDS011;58302;51.446;-2.000;2023-12-14T14:16:06;5.43;;;3.60;;
55300;SDS011;58302;51.446;-2.000;2023-12-14T14:18:32;4.45;;;3.05;;
55300;SDS011;58302;51.446;-2.000;2023-12-14T14:20:58;7.53;;;2.78;;
55300;SDS011;58302;51.446;-2.000;2023-12-14T14:23:26;5.55;;;3.00;;
55300;SDS011;58302;51.446;-2.000;2023-12-14T14:25:52;5.65;;;3.72;;
55300;SDS011;58302;51.446;-2.000;2023-12-14T14:28:21;4.93;;;3.75;;
55300;SDS011;58302;51.446;-2.000;2023-12-14T14:30:48;5.97;;;4.40;;
55300;SDS011;58302;51.446;-2.000;2023-12-14T14:33:15;12.40;;;5.32;;
55300;SDS011;58302;51.446;-2.000;2023-12-14T14:35:46;6.75;;;4.75;;
55300;SDS011;58302;51.446;-2.000;2023-12-14T14:38:15;7.25;;;4.45;;